Apodi, Brazil

11:27 AM BRT on September 04, 2015 (GMT -0300)
Dix Sept Rosado | | Change Station
CLOSE
Current Station
Airport
Location: Mocoro,
Elevation: 75 ft
Nearby Weather Stations

Elev 75 ft 5.20 °S, 37.36 °W | Updated 27 minutes ago

Scattered Clouds
Scattered Clouds
93 °F
Feels Like 98 °F
N
7
Wind Variable Wind from East

Today
High -- | Low -- °F
--% Chance of Precip.
Yesterday
High -- | Low -- °F
Precip. -- in
5:29 AM 5:30 PM
Waning Gibbous, 59% visible
Pressure 29.95 in
Visibility 6.2 miles
Clouds Scattered Clouds 3000 ft
Heat Index 98 °F
Dew Point 68 °F
Humidity 44%
Rainfall 0.00 in
Snow Depth Not available.
UV 10 out of 12
Pollen Not available.
Air Quality Not available.
Flu Activity Not available.
METAR SBMS 041400Z 08006KT 9999 SCT030 34/20 Q1014
Pressure 29.95 in
Visibility 6.2 miles
Clouds Scattered Clouds 3000 ft
Heat Index 98 °F
Dew Point 68 °F
Humidity 44%
Rainfall 0.00 in
Snow Depth Not available.
UV 10 out of 12
Pollen Not available.
Air Quality Not available.
Flu Activity Not available.
METAR SBMS 041400Z 08006KT 9999 SCT030 34/20 Q1014

10-Day Weather Forecast

×

Almanac

Astronomy

Sep. 04, 2015 Rise Set
Actual Time
Civil Twilight
Nautical Twilight
Astronomical Twilight
Moon
Length of Visible Light
Length of Day
Tomorrow will be .
, % of the Moon is Illuminated

Today's Extremes

Country Highs Country Lows

Community

WunderPhotos

Upload Photos

1,852,186 photos uploaded!

WunderBlogs® & News

Nearby

Air Quality

  Air Quality AQ Index Pollutant
Not available.

Snow Depth

Station Depth Elevation

Earthquake Activity

City Distance Mag. Time & Date
Minimum magnitude displayed is 2.5.

Coastal Water Temperatures

Place Temperature

Stations

Nearby Weather Stations

Station Location Temp. Windchill Dew Point Humidity Wind Precip. Elev Updated Type